createdAt,value
2018-11-20T00:02:46.895Z,13.07
2018-11-20T00:05:57.152Z,13.11
2018-11-20T00:09:06.313Z,13.09
2018-11-20T00:12:15.770Z,13.12
2018-11-20T00:15:31.042Z,13.14
2018-11-20T00:18:55.259Z,13.18
2018-11-20T00:22:13.476Z,13.15
2018-11-20T00:25:31.960Z,13.25
2018-11-20T00:28:43.683Z,13.24
2018-11-20T00:31:54.781Z,13.28
2018-11-20T00:35:05.056Z,13.27
2018-11-20T00:38:20.505Z,13.23
2018-11-20T00:41:22.631Z,13.16
2018-11-20T00:44:30.369Z,13.16
2018-11-20T00:47:42.403Z,13.13
2018-11-20T00:51:00.915Z,13.18
2018-11-20T00:54:05.357Z,13.17
2018-11-20T00:57:13.940Z,13.15
2018-11-20T01:00:16.054Z,13.15
2018-11-20T01:03:15.801Z,13.19
2018-11-20T01:06:23.289Z,13.24
2018-11-20T01:09:38.683Z,13.29
2018-11-20T01:12:47.693Z,13.36
2018-11-20T01:16:17.306Z,13.37
2018-11-20T01:19:21.872Z,13.33
2018-11-20T01:22:29.977Z,13.36
2018-11-20T01:25:33.735Z,13.37
2018-11-20T01:28:43.012Z,13.40
2018-11-20T01:31:51.381Z,13.44
2018-11-20T01:34:59.590Z,13.54
2018-11-20T01:38:06.907Z,13.66
2018-11-20T01:41:15.151Z,13.67
2018-11-20T01:44:35.923Z,13.80
2018-11-20T01:47:47.914Z,13.72
2018-11-20T01:50:57.171Z,13.76
2018-11-20T01:53:58.743Z,13.72
2018-11-20T01:56:55.585Z,13.79
2018-11-20T02:00:03.281Z,13.84
2018-11-20T02:03:27.915Z,13.87
2018-11-20T02:06:41.639Z,13.92
2018-11-20T02:09:49.675Z,13.93
2018-11-20T02:12:54.493Z,13.85
2018-11-20T02:16:10.806Z,13.93
2018-11-20T02:19:26.216Z,13.96
2018-11-20T02:22:33.828Z,13.91
2018-11-20T02:25:50.349Z,13.92
2018-11-20T02:28:59.164Z,13.95
2018-11-20T02:32:23.223Z,14.05
2018-11-20T02:35:38.345Z,14.00
2018-11-20T02:38:54.441Z,14.02
2018-11-20T02:42:02.634Z,13.99
2018-11-20T02:45:25.382Z,14.09
2018-11-20T02:48:34.694Z,14.07
2018-11-20T02:51:44.054Z,14.07
2018-11-20T02:55:08.280Z,14.12
2018-11-20T02:58:23.970Z,14.08
2018-11-20T03:01:31.321Z,14.04
2018-11-20T03:04:39.630Z,13.98
2018-11-20T03:08:00.409Z,14.00
2018-11-20T03:11:21.424Z,14.05
2018-11-20T03:14:29.279Z,14.10
2018-11-20T03:17:41.536Z,14.15
2018-11-20T03:20:53.976Z,14.13
2018-11-20T03:24:09.446Z,14.22
2018-11-20T03:27:10.390Z,14.30
2018-11-20T03:30:50.911Z,14.36
2018-11-20T03:34:03.784Z,14.22
2018-11-20T03:37:11.546Z,14.16
2018-11-20T03:40:20.796Z,14.13
2018-11-20T03:43:29.059Z,14.14
2018-11-20T03:46:36.820Z,14.22
2018-11-20T03:49:44.709Z,14.25
2018-11-20T03:52:52.794Z,14.33
2018-11-20T03:55:49.612Z,14.34
2018-11-20T03:59:08.062Z,14.39
2018-11-20T04:02:29.593Z,14.38
2018-11-20T04:05:44.270Z,14.43
2018-11-20T04:08:50.031Z,14.46
2018-11-20T04:11:58.176Z,14.51
2018-11-20T04:15:07.517Z,14.56
2018-11-20T04:18:19.730Z,14.45
2018-11-20T04:21:21.545Z,14.50
2018-11-20T04:24:36.859Z,14.56
2018-11-20T04:27:47.946Z,14.53
2018-11-20T04:31:32.609Z,14.54
2018-11-20T04:34:40.312Z,14.52
2018-11-20T04:37:58.638Z,14.61
2018-11-20T04:41:01.959Z,14.55
2018-11-20T04:44:14.496Z,14.53
2018-11-20T04:47:30.188Z,14.52
2018-11-20T04:50:30.072Z,14.55
2018-11-20T04:53:48.061Z,14.53
2018-11-20T04:56:56.289Z,14.55
2018-11-20T05:00:06.261Z,14.60
2018-11-20T05:03:33.582Z,14.58
2018-11-20T05:06:54.634Z,14.61
2018-11-20T05:09:54.555Z,14.63
2018-11-20T05:13:14.938Z,14.61
2018-11-20T05:16:22.658Z,14.62
2018-11-20T05:19:43.441Z,14.73
2018-11-20T05:22:57.627Z,14.67
2018-11-20T05:26:06.450Z,14.70
2018-11-20T05:29:14.755Z,14.72
2018-11-20T05:32:33.333Z,14.68
2018-11-20T05:35:39.972Z,14.73
2018-11-20T05:38:58.204Z,14.73
2018-11-20T05:42:07.645Z,14.68
2018-11-20T05:45:15.261Z,14.75
2018-11-20T05:48:23.106Z,14.68
2018-11-20T05:51:41.403Z,14.72
2018-11-20T05:54:56.473Z,14.73
2018-11-20T05:58:11.490Z,14.72
2018-11-20T06:01:23.401Z,14.74
2018-11-20T06:04:35.517Z,14.71
2018-11-20T06:07:47.506Z,14.75
2018-11-20T06:10:51.617Z,14.73
2018-11-20T06:14:06.519Z,14.71
2018-11-20T06:17:14.381Z,14.79
2018-11-20T06:20:32.656Z,14.77
2018-11-20T06:23:54.093Z,14.75
2018-11-20T06:27:16.215Z,14.78
2018-11-20T06:30:35.840Z,14.78
2018-11-20T06:33:44.926Z,14.76
2018-11-20T06:36:53.088Z,14.78
2018-11-20T06:40:05.181Z,14.83
2018-11-20T06:43:32.514Z,14.82
2018-11-20T06:46:40.783Z,14.84
2018-11-20T06:49:49.891Z,14.83
2018-11-20T06:52:59.463Z,14.87
2018-11-20T06:56:14.381Z,14.88
2018-11-20T06:59:22.196Z,14.89
2018-11-20T07:02:30.666Z,14.93
2018-11-20T07:05:42.814Z,14.97
2018-11-20T07:08:52.062Z,15.00
2018-11-20T07:11:56.105Z,14.97
2018-11-20T07:15:11.276Z,15.03
2018-11-20T07:18:32.351Z,15.00
2018-11-20T07:21:44.181Z,14.97
2018-11-20T07:24:42.994Z,15.01
2018-11-20T07:27:50.648Z,15.02
2018-11-20T07:31:00.142Z,15.00
2018-11-20T07:34:08.044Z,15.06
2018-11-20T07:37:15.974Z,15.07
2018-11-20T07:40:32.127Z,15.03
2018-11-20T07:43:59.600Z,15.10
2018-11-20T07:47:07.449Z,15.08
2018-11-20T07:50:15.314Z,15.13
2018-11-20T07:53:30.891Z,15.15
2018-11-20T07:56:42.493Z,15.14
2018-11-20T07:59:47.175Z,15.18
2018-11-20T08:02:59.224Z,15.13
2018-11-20T08:06:06.855Z,15.24
2018-11-20T08:09:07.892Z,15.26
2018-11-20T08:12:20.993Z,15.26
2018-11-20T08:15:29.049Z,15.29
2018-11-20T08:18:41.655Z,15.30
2018-11-20T08:21:51.802Z,15.30
2018-11-20T08:24:59.884Z,15.32
2018-11-20T08:28:09.208Z,15.38
2018-11-20T08:31:24.145Z,15.27
2018-11-20T08:34:35.698Z,15.26
2018-11-20T08:37:53.109Z,15.30
2018-11-20T08:41:03.784Z,15.27
2018-11-20T08:44:11.782Z,15.32
2018-11-20T08:47:29.672Z,15.38
2018-11-20T08:50:44.966Z,15.33
2018-11-20T08:54:09.507Z,15.40
2018-11-20T08:57:17.955Z,15.43
2018-11-20T09:00:34.221Z,15.44
2018-11-20T09:03:41.696Z,15.43
2018-11-20T09:06:53.827Z,15.44
2018-11-20T09:10:02.236Z,15.46
2018-11-20T09:13:14.219Z,15.47
2018-11-20T09:16:22.168Z,15.50
2018-11-20T09:19:31.256Z,15.50
2018-11-20T09:22:40.059Z,15.53
2018-11-20T09:25:42.713Z,15.60
2018-11-20T09:28:55.742Z,15.68
2018-11-20T09:32:03.707Z,15.68
2018-11-20T09:35:11.884Z,15.78
2018-11-20T09:38:26.409Z,15.79
2018-11-20T09:41:36.121Z,15.75
2018-11-20T09:45:21.481Z,15.89
2018-11-20T09:48:29.177Z,15.86
2018-11-20T09:51:37.307Z,15.83
2018-11-20T09:54:45.623Z,15.84
2018-11-20T09:57:53.174Z,15.95
2018-11-20T10:01:06.383Z,15.92
2018-11-20T10:04:14.353Z,15.89
2018-11-20T10:09:10.730Z,16.05
2018-11-20T10:12:28.672Z,16.05
2018-11-20T10:15:36.480Z,16.11
2018-11-20T10:18:44.507Z,16.03
2018-11-20T10:21:56.052Z,16.10
2018-11-20T10:25:04.706Z,16.12
2018-11-20T10:28:12.081Z,16.11
2018-11-20T10:31:37.028Z,16.10
2018-11-20T10:34:48.266Z,16.13
2018-11-20T10:37:55.020Z,16.22
2018-11-20T10:41:05.781Z,16.13
2018-11-20T10:44:09.966Z,16.10
2018-11-20T10:47:20.838Z,16.04
2018-11-20T10:50:28.574Z,16.07
2018-11-20T10:53:43.657Z,16.05
2018-11-20T10:56:52.276Z,16.05
2018-11-20T10:59:59.704Z,16.10
2018-11-20T11:03:06.985Z,16.14
2018-11-20T11:06:14.141Z,16.12
2018-11-20T11:09:19.161Z,16.12
2018-11-20T11:12:23.147Z,16.07
2018-11-20T11:15:40.308Z,16.05
2018-11-20T11:18:47.407Z,16.06
2018-11-20T11:22:04.238Z,16.03
2018-11-20T11:25:18.860Z,16.07
2018-11-20T11:28:27.072Z,16.11
2018-11-20T11:31:53.843Z,16.03
2018-11-20T11:35:01.048Z,16.07
2018-11-20T11:38:08.232Z,16.13
2018-11-20T11:41:19.747Z,16.18
2018-11-20T11:44:43.052Z,16.18
2018-11-20T11:47:53.940Z,16.13
2018-11-20T11:51:02.364Z,16.04
2018-11-20T11:54:22.642Z,16.06
2018-11-20T11:57:30.788Z,16.07
2018-11-20T12:00:50.899Z,16.03
2018-11-20T12:03:52.823Z,16.07
2018-11-20T12:07:16.169Z,16.11
2018-11-20T12:10:28.864Z,16.09
2018-11-20T12:13:36.013Z,16.09
2018-11-20T12:16:44.534Z,16.09
2018-11-20T12:19:51.546Z,16.09
2018-11-20T12:23:00.055Z,16.09
2018-11-20T12:26:17.240Z,16.11
2018-11-20T12:29:24.656Z,16.10
2018-11-20T12:32:42.507Z,16.11
2018-11-20T12:35:50.134Z,16.14
2018-11-20T12:38:57.654Z,16.20
2018-11-20T12:42:05.316Z,16.19
2018-11-20T12:45:16.638Z,16.16
2018-11-20T12:48:31.089Z,16.20
2018-11-20T12:51:37.826Z,16.09
2018-11-20T12:54:58.422Z,16.10
2018-11-20T12:58:13.997Z,16.14
2018-11-20T13:01:20.225Z,16.18
2018-11-20T13:04:35.622Z,16.13
2018-11-20T13:07:42.492Z,16.03
2018-11-20T13:10:51.423Z,16.04
2018-11-20T13:13:59.606Z,16.02
2018-11-20T13:17:08.923Z,16.05
2018-11-20T13:20:33.770Z,16.05
2018-11-20T13:23:39.820Z,16.08
2018-11-20T13:26:54.644Z,16.14
2018-11-20T13:30:01.419Z,16.11
2018-11-20T13:32:59.704Z,16.13
2018-11-20T13:36:08.251Z,16.15
2018-11-20T13:39:28.811Z,16.12
2018-11-20T13:42:43.054Z,16.15
2018-11-20T13:45:56.388Z,16.19
2018-11-20T13:49:04.618Z,16.16
2018-11-20T13:52:12.924Z,16.18
2018-11-20T13:55:20.733Z,16.20
2018-11-20T13:58:28.429Z,16.22
2018-11-20T14:01:33.023Z,16.22
2018-11-20T14:04:50.025Z,16.22
2018-11-20T14:07:57.102Z,16.20
2018-11-20T14:11:15.059Z,16.28
2018-11-20T14:14:22.620Z,16.32
2018-11-20T14:17:49.626Z,16.34
2018-11-20T14:20:57.056Z,16.29
2018-11-20T14:24:23.686Z,16.32
2018-11-20T14:27:35.152Z,16.28
2018-11-20T14:30:42.082Z,16.20
2018-11-20T14:33:50.486Z,16.23
2018-11-20T14:37:17.345Z,16.21
2018-11-20T14:40:24.939Z,16.15
2018-11-20T14:43:31.864Z,16.17
2018-11-20T14:46:56.143Z,16.17
2018-11-20T14:50:10.685Z,16.17
2018-11-20T14:53:34.027Z,16.12
2018-11-20T14:56:41.683Z,16.14
2018-11-20T14:59:50.289Z,16.11
2018-11-20T15:02:57.333Z,16.12
2018-11-20T15:06:05.889Z,16.13
2018-11-20T15:09:17.605Z,16.20
2018-11-20T15:12:23.022Z,16.20
2018-11-20T15:15:41.064Z,16.18
2018-11-20T15:18:48.392Z,16.15
2018-11-20T15:21:55.118Z,16.14
2018-11-20T15:25:02.594Z,16.18
2018-11-20T15:28:13.881Z,16.19
2018-11-20T15:31:21.247Z,16.21
2018-11-20T15:34:41.363Z,16.20
2018-11-20T15:37:48.781Z,16.27
2018-11-20T15:40:56.385Z,16.21
2018-11-20T15:44:16.718Z,16.23
2018-11-20T15:47:23.612Z,16.26
2018-11-20T15:50:41.267Z,16.22
2018-11-20T15:53:48.426Z,16.22
2018-11-20T15:57:15.262Z,16.25
2018-11-20T16:00:23.564Z,16.25
2018-11-20T16:03:30.464Z,16.23
2018-11-20T16:06:39.154Z,16.25
2018-11-20T16:09:42.850Z,16.30
2018-11-20T16:12:57.499Z,16.26
2018-11-20T16:16:18.679Z,16.32
2018-11-20T16:19:27.311Z,16.32
2018-11-20T16:22:33.996Z,16.28
2018-11-20T16:25:38.699Z,16.30
2018-11-20T16:28:59.153Z,16.32
2018-11-20T16:32:07.859Z,16.26
2018-11-20T16:35:34.604Z,16.24
2018-11-20T16:38:44.978Z,16.31
2018-11-20T16:41:53.198Z,16.28
2018-11-20T16:45:16.975Z,16.31
2018-11-20T16:48:43.607Z,16.38
2018-11-20T16:51:59.407Z,16.42
2018-11-20T16:55:07.799Z,16.44
2018-11-20T16:58:15.180Z,16.47
2018-11-20T17:01:15.680Z,16.45
2018-11-20T17:04:23.300Z,16.46
2018-11-20T17:07:31.958Z,16.50
2018-11-20T17:10:59.040Z,16.52
2018-11-20T17:14:22.532Z,16.52
2018-11-20T17:17:29.846Z,16.56
2018-11-20T17:20:36.683Z,16.57
2018-11-20T17:23:51.411Z,16.57
2018-11-20T17:26:58.531Z,16.61
2018-11-20T17:30:12.524Z,16.58
2018-11-20T17:33:30.203Z,16.60
2018-11-20T17:36:40.785Z,16.64
2018-11-20T17:40:04.742Z,16.62
2018-11-20T17:43:12.195Z,16.62
2018-11-20T17:46:23.658Z,16.63
2018-11-20T17:49:30.909Z,16.59
2018-11-20T17:52:39.122Z,16.65
2018-11-20T17:55:50.770Z,16.62
2018-11-20T17:59:05.127Z,16.66
2018-11-20T18:02:13.866Z,16.67
2018-11-20T18:05:31.533Z,16.62
2018-11-20T18:08:35.283Z,16.63
2018-11-20T18:11:41.997Z,16.65
2018-11-20T18:14:42.119Z,16.65
2018-11-20T18:17:51.022Z,16.65
2018-11-20T18:20:54.666Z,16.63
2018-11-20T18:24:03.202Z,16.63
2018-11-20T18:27:10.020Z,16.66
2018-11-20T18:30:21.627Z,16.64
2018-11-20T18:33:27.070Z,16.69
2018-11-20T18:36:47.507Z,16.70
2018-11-20T18:40:02.190Z,16.71
2018-11-20T18:43:28.984Z,16.73
2018-11-20T18:46:46.790Z,16.73
2018-11-20T18:50:04.667Z,16.76
2018-11-20T18:53:22.865Z,16.74
2018-11-20T18:56:49.340Z,16.78
2018-11-20T19:00:03.608Z,16.76
2018-11-20T19:03:12.384Z,16.77
2018-11-20T19:06:09.605Z,16.74
2018-11-20T19:09:27.114Z,16.73
2018-11-20T19:12:41.832Z,16.71
2018-11-20T19:15:43.735Z,16.79
2018-11-20T19:18:58.061Z,16.74
2018-11-20T19:22:04.955Z,16.71
2018-11-20T19:25:31.653Z,16.70
2018-11-20T19:28:46.295Z,16.73
2018-11-20T19:32:01.235Z,16.69
2018-11-20T19:35:08.230Z,16.65
2018-11-20T19:38:15.336Z,16.67
2018-11-20T19:41:42.306Z,16.65
2018-11-20T19:45:09.192Z,16.78
2018-11-20T19:48:12.770Z,16.82
2018-11-20T19:51:21.326Z,16.79
2018-11-20T19:54:47.883Z,16.75
2018-11-20T19:57:56.022Z,16.76
2018-11-20T20:01:22.926Z,16.80
2018-11-20T20:04:40.628Z,16.82
2018-11-20T20:07:46.715Z,16.78
2018-11-20T20:10:53.781Z,16.74
2018-11-20T20:14:02.511Z,16.71
2018-11-20T20:17:14.030Z,16.73
2018-11-20T20:20:33.876Z,16.77
2018-11-20T20:23:42.334Z,16.71
2018-11-20T20:26:56.493Z,16.87
2018-11-20T20:30:16.497Z,16.90
2018-11-20T20:33:23.771Z,16.87
2018-11-20T20:36:30.670Z,16.91
2018-11-20T20:39:36.957Z,16.80
2018-11-20T20:42:51.736Z,16.77
2018-11-20T20:46:12.556Z,16.82
2018-11-20T20:49:19.714Z,16.77
2018-11-20T20:52:15.994Z,16.68
2018-11-20T20:55:27.673Z,16.63
2018-11-20T20:58:45.866Z,16.61
2018-11-20T21:01:50.423Z,16.65
2018-11-20T21:05:06.451Z,16.60
2018-11-20T21:08:30.744Z,16.65
2018-11-20T21:11:37.716Z,16.69
2018-11-20T21:15:01.643Z,16.71
2018-11-20T21:18:16.375Z,16.75
2018-11-20T21:21:34.517Z,16.72
2018-11-20T21:24:41.122Z,16.72
2018-11-20T21:27:58.210Z,16.72
2018-11-20T21:30:56.072Z,16.72
2018-11-20T21:33:59.408Z,16.72
2018-11-20T21:37:13.817Z,16.68
2018-11-20T21:40:28.068Z,16.63
2018-11-20T21:43:36.966Z,16.61
2018-11-20T21:46:40.209Z,16.65
2018-11-20T21:49:46.970Z,16.67
2018-11-20T21:53:07.829Z,16.66
2018-11-20T21:56:18.868Z,16.69
2018-11-20T21:59:43.500Z,16.75
2018-11-20T22:02:55.772Z,16.68
2018-11-20T22:06:13.009Z,16.62
2018-11-20T22:09:33.488Z,16.67
2018-11-20T22:12:40.669Z,16.68
2018-11-20T22:15:48.016Z,16.69
2018-11-20T22:19:02.396Z,16.68
2018-11-20T22:22:11.012Z,16.74
2018-11-20T22:25:16.925Z,16.76
2018-11-20T22:28:23.617Z,16.70
2018-11-20T22:31:30.658Z,16.71
2018-11-20T22:34:48.308Z,16.68
2018-11-20T22:38:05.993Z,16.59
2018-11-20T22:41:17.725Z,16.59
2018-11-20T22:44:25.047Z,16.60
2018-11-20T22:47:51.646Z,16.58
2018-11-20T22:51:15.420Z,16.54
2018-11-20T22:54:42.442Z,16.48
2018-11-20T22:57:59.960Z,16.50
2018-11-20T23:01:20.728Z,16.49
2018-11-20T23:04:28.021Z,16.52
2018-11-20T23:07:39.443Z,16.58
2018-11-20T23:10:29.541Z,16.62
2018-11-20T23:13:19.358Z,16.57
2018-11-20T23:16:08.840Z,16.53
2018-11-20T23:18:57.911Z,16.58
2018-11-20T23:21:47.468Z,16.59
2018-11-20T23:24:37.067Z,16.59
2018-11-20T23:27:27.087Z,16.59
2018-11-20T23:30:17.251Z,16.59
2018-11-20T23:33:06.668Z,16.54
2018-11-20T23:35:56.203Z,16.56
2018-11-20T23:38:45.887Z,16.61
2018-11-20T23:41:35.343Z,16.66
2018-11-20T23:44:24.883Z,16.69
2018-11-20T23:47:14.780Z,16.72
2018-11-20T23:50:04.493Z,16.79
2018-11-20T23:52:54.130Z,16.80
2018-11-20T23:55:43.397Z,16.79
2018-11-20T23:58:32.828Z,16.94
